Terminal Aerodrome Forecast
Issued by NWS

Home | Current Version | Previous Version | Text Only | Print | Product List | Glossary On
Versions: 1 2 3 4 5 6 7 8 9 10 11 12 13 14 15 16 17 18 19 20 21 22 23 24
000
FTUS42 KRAH 041736
TAFRWI
TAF
KRWI 041736Z 0418/0518 10005KT P6SM OVC070
     FM042200 09005KT P6SM -RA OVC050
     FM050000 06005KT 4SM -RA BR OVC025
     FM050300 05005KT 1 1/2SM -RA BR OVC004
     FM050900 36005KT 1/2SM -DZ FG OVC002
     FM051200 33005KT 3SM BR OVC004
     FM051500 33005KT P6SM BKN015=

USA.gov is the U.S. government's official web portal to all federal, state and local government web resources and services.